Time;durP1;ratioP1;P1;durP2;ratioP2;P2;SDS_P1;SDS_P2;PMS_P1;PMS_P2;Temp;Humidity;BMP_temperature;BMP_pressure;BME280_temperature;BME280_humidity;BME280_pressure;Samples;Min_cycle;Max_cycle;Signal;HPM_P1;HPM_P2
2023/09/26 06:16:19;;;;;;;;;5.00;4.75;;;;;24.70;45.48;101465.66;5072269;27;45339;-54
2023/09/26 06:21:20;;;;;;;;;6.00;6.00;;;;;25.47;43.57;101462.84;5331214;22;46270;-51
2023/09/26 06:23:45;;;;;;;;;5.00;5.00;;;;;25.71;43.39;101461.50;5030069;28;45435;-53
2023/09/26 06:26:10;;;;;;;;;6.50;6.50;;;;;25.93;42.17;101475.72;5035164;28;45329;-54
2023/09/26 06:28:35;;;;;;;;;11.25;10.25;;;;;26.01;41.99;101474.97;5033553;28;47962;-54
2023/09/26 06:31:05;;;;;;;;;11.00;9.25;;;;;26.17;41.66;101464.16;5031593;28;45354;-53
2023/09/26 06:33:31;;;;;;;;;6.50;5.00;;;;;26.31;42.26;101455.41;5035865;28;45206;-54
2023/09/26 06:35:56;;;;;;;;;8.75;8.50;;;;;26.46;41.24;101450.22;5034408;28;45258;-51
2023/09/26 06:38:21;;;;;;;;;6.00;6.00;;;;;26.48;40.59;101450.94;5031436;28;56640;-54
2023/09/26 06:40:46;;;;;;;;;11.00;8.00;;;;;26.62;40.80;101463.31;5034666;28;45469;-52
2023/09/26 06:43:12;;;;;;;;;7.00;7.00;;;;;26.80;40.55;101475.16;5034335;28;45406;-54
2023/09/26 06:45:39;;;;;;;;;8.25;7.75;;;;;26.82;40.77;101462.09;5033260;28;46384;-53
2023/09/26 06:48:05;;;;;;;;;7.00;5.00;;;;;26.90;40.41;101466.81;5034558;28;45213;-54
2023/09/26 06:50:30;;;;;;;;;7.00;6.25;;;;;27.00;39.79;101464.88;5034150;28;45309;-54
2023/09/26 06:52:56;;;;;;;;;8.00;7.00;;;;;27.02;39.69;101457.34;5034053;28;58521;-52
2023/09/26 06:55:21;;;;;;;;;6.00;6.00;;;;;27.13;39.67;101456.22;5033332;28;45475;-54
2023/09/26 06:57:46;;;;;;;;;5.25;5.25;;;;;27.25;39.56;101471.44;5034482;28;45451;-53
2023/09/26 07:00:19;;;;;;;;;6.75;6.75;;;;;27.24;39.24;101456.81;5602656;22;50094;-54
2023/09/26 07:02:46;;;;;;;;;7.75;6.25;;;;;27.36;38.66;101462.94;5050089;28;45465;-52
2023/09/26 07:05:11;;;;;;;;;5.00;5.00;;;;;27.44;39.11;101477.63;5051502;28;45292;-52
2023/09/26 07:07:38;;;;;;;;;7.00;7.00;;;;;27.48;38.93;101479.00;5054996;28;45228;-50
2023/09/26 07:10:05;;;;;;;;;7.00;7.00;;;;;27.51;38.38;101480.56;5054157;28;45285;-51
2023/09/26 07:12:30;;;;;;;;;7.00;7.00;;;;;27.52;38.13;101479.56;5055096;28;46911;-55
2023/09/26 07:17:23;;;;;;;;;6.50;6.50;;;;;27.57;38.26;101477.19;5049100;28;71872;-52
2023/09/26 07:19:49;;;;;;;;;9.75;6.75;;;;;27.62;38.55;101477.59;5063818;28;45310;-55
2023/09/26 07:22:14;;;;;;;;;6.50;5.50;;;;;27.68;38.11;101471.41;5058289;28;45884;-54
2023/09/26 07:24:40;;;;;;;;;5.75;5.75;;;;;27.69;38.38;101464.00;5054382;28;45548;-61
2023/09/26 07:27:07;;;;;;;;;8.25;6.75;;;;;27.68;37.71;101465.91;5060762;28;45263;-61
2023/09/26 07:29:33;;;;;;;;;8.00;7.25;;;;;27.82;38.01;101486.47;5060640;28;45339;-61
2023/09/26 07:31:58;;;;;;;;;7.25;7.25;;;;;27.81;37.72;101504.06;5059910;28;45343;-60
2023/09/26 07:34:23;;;;;;;;;7.75;6.50;;;;;27.90;38.00;101503.06;5059938;28;45979;-61
2023/09/26 07:36:49;;;;;;;;;7.00;6.00;;;;;27.77;37.68;101488.84;5061145;28;45271;-61
2023/09/26 07:44:20;;;;;;;;;7.00;7.00;;;;;27.82;37.90;101489.22;3285067;26;46067;-75
2023/09/26 07:46:46;;;;;;;;;7.00;7.00;;;;;27.87;38.19;101492.38;5035230;28;45365;-76
2023/09/26 07:49:11;;;;;;;;;8.25;5.75;;;;;27.94;38.57;101495.31;5038097;28;45274;-75
2023/09/26 07:51:36;;;;;;;;;5.50;5.50;;;;;27.92;37.56;101491.84;5035751;28;45449;-76
2023/09/26 07:54:02;;;;;;;;;5.75;4.00;;;;;27.83;37.47;101488.19;5036050;28;48542;-76
2023/09/26 07:56:27;;;;;;;;;6.25;6.25;;;;;27.84;37.49;101495.44;5035996;28;45227;-75
2023/09/26 07:58:52;;;;;;;;;11.50;6.75;;;;;27.81;38.08;101487.50;5036401;28;45208;-76
2023/09/26 08:01:18;;;;;;;;;7.25;6.00;;;;;27.86;37.94;101477.72;5035570;28;45604;-76
2023/09/26 08:03:43;;;;;;;;;4.75;4.75;;;;;27.94;37.58;101489.81;5035851;28;51337;-76
2023/09/26 08:06:09;;;;;;;;;5.75;5.75;;;;;28.04;37.74;101502.44;5035941;28;45473;-75
2023/09/26 08:08:35;;;;;;;;;6.25;6.25;;;;;28.08;37.27;101500.19;5036448;28;46501;-76
2023/09/26 08:11:14;;;;;;;;;6.25;5.75;;;;;28.01;36.90;101488.09;5050538;28;45337;-77
2023/09/26 08:13:39;;;;;;;;;8.00;5.00;;;;;28.17;37.62;101493.72;5032171;28;46172;-74
2023/09/26 08:16:05;;;;;;;;;6.00;6.00;;;;;28.26;37.42;101498.25;5034726;28;45355;-76
2023/09/26 08:18:31;;;;;;;;;7.00;7.00;;;;;28.28;36.69;101509.97;5034954;28;45366;-76
2023/09/26 08:20:57;;;;;;;;;8.00;7.00;;;;;28.10;36.85;101493.50;5035152;28;45418;-75
2023/09/26 08:23:28;;;;;;;;;6.75;5.00;;;;;28.22;37.46;101502.38;5035825;28;45828;-76
2023/09/26 08:26:02;;;;;;;;;6.25;6.25;;;;;28.23;37.26;101504.97;5035951;28;45406;-74
2023/09/26 08:28:28;;;;;;;;;5.00;5.00;;;;;28.10;37.38;101496.25;5034855;28;45736;-76
2023/09/26 08:30:57;;;;;;;;;6.50;5.50;;;;;28.36;36.96;101506.38;5036146;28;45330;-76
2023/09/26 08:33:26;;;;;;;;;5.00;5.00;;;;;28.39;37.48;101506.91;5036056;28;46028;-76
2023/09/26 08:35:52;;;;;;;;;13.00;11.50;;;;;28.42;37.40;101500.19;5036227;28;45446;-75
2023/09/26 08:38:17;;;;;;;;;8.25;7.00;;;;;28.41;37.33;101490.22;5035751;28;45338;-75
2023/09/26 08:40:44;;;;;;;;;7.25;6.00;;;;;28.40;36.85;101486.59;5036141;28;45352;-74
2023/09/26 08:43:12;;;;;;;;;7.50;7.50;;;;;28.43;37.41;101486.22;5035482;28;47383;-75
2023/09/26 08:45:39;;;;;;;;;6.00;6.00;;;;;28.40;37.48;101491.22;5035429;28;45516;-76
2023/09/26 08:48:05;;;;;;;;;6.00;5.50;;;;;28.54;37.29;101496.09;5035693;28;45373;-76
2023/09/26 08:50:30;;;;;;;;;6.50;6.50;;;;;28.61;36.65;101483.34;5035980;28;45317;-75
2023/09/26 08:52:59;;;;;;;;;8.00;8.00;;;;;28.57;37.09;101476.44;5035580;28;46643;-76
2023/09/26 08:55:27;;;;;;;;;8.00;6.25;;;;;28.59;36.83;101488.16;5035972;28;45247;-75
2023/09/26 08:57:54;;;;;;;;;6.00;6.00;;;;;28.40;36.93;101481.06;5035348;28;45185;-75
2023/09/26 09:00:21;;;;;;;;;7.00;7.00;;;;;28.53;37.42;101484.19;5035515;28;45395;-75
2023/09/26 09:02:48;;;;;;;;;10.50;7.75;;;;;28.50;37.46;101469.84;5035259;28;46040;-75
2023/09/26 09:05:20;;;;;;;;;5.75;5.00;;;;;28.56;37.35;101477.47;5035265;28;45356;-76
2023/09/26 09:07:47;;;;;;;;;9.75;7.75;;;;;28.50;37.22;101472.63;5035386;28;45476;-76
2023/09/26 09:10:16;;;;;;;;;8.50;6.50;;;;;28.53;37.35;101489.72;5035482;28;45557;-76
2023/09/26 09:12:44;;;;;;;;;6.00;6.00;;;;;28.48;37.44;101486.59;5034759;28;46311;-76
2023/09/26 09:15:19;;;;;;;;;6.00;6.00;;;;;28.64;37.69;101480.25;5035861;28;45588;-76
2023/09/26 09:17:47;;;;;;;;;5.75;5.75;;;;;28.67;37.59;101477.13;5035663;28;45256;-75
2023/09/26 09:20:16;;;;;;;;;5.50;5.50;;;;;28.65;37.06;101464.56;5034960;28;45599;-76
2023/09/26 09:22:46;;;;;;;;;6.50;6.50;;;;;28.70;37.74;101479.56;5035510;28;46233;-75
2023/09/26 09:25:11;;;;;;;;;7.00;4.75;;;;;28.58;37.31;101456.94;5035533;28;45343;-75
2023/09/26 09:27:39;;;;;;;;;9.25;8.00;;;;;28.75;37.06;101471.63;5035275;28;45298;-75
2023/09/26 09:30:11;;;;;;;;;7.50;5.75;;;;;28.80;37.21;101472.03;5035081;28;45625;-76
2023/09/26 09:32:39;;;;;;;;;10.00;9.75;;;;;28.83;36.70;101474.44;5035325;28;46720;-76
2023/09/26 09:35:08;;;;;;;;;5.75;5.75;;;;;28.94;36.76;101479.59;5035238;28;45312;-76
2023/09/26 09:37:34;;;;;;;;;6.75;6.00;;;;;28.94;37.42;101478.75;5034172;28;45736;-77
2023/09/26 09:39:59;;;;;;;;;8.50;6.50;;;;;28.94;36.87;101476.84;5034613;28;45628;-76
2023/09/26 09:42:24;;;;;;;;;6.75;6.50;;;;;28.95;36.87;101463.91;5034919;28;52512;-76
2023/09/26 09:44:50;;;;;;;;;6.00;6.00;;;;;29.10;36.44;101472.34;5034729;28;45497;-77
2023/09/26 09:47:22;;;;;;;;;8.00;6.25;;;;;29.28;36.93;101473.03;5042101;28;45369;-78
2023/09/26 09:49:48;;;;;;;;;7.25;5.75;;;;;29.45;36.67;101473.91;5040705;28;45257;-78
2023/09/26 09:52:17;;;;;;;;;7.00;7.00;;;;;29.44;36.18;101467.53;5034691;28;45455;-77
2023/09/26 09:54:44;;;;;;;;;5.25;5.25;;;;;29.47;36.23;101453.38;5034903;28;45227;-77
2023/09/26 09:57:10;;;;;;;;;6.50;5.00;;;;;29.52;36.43;101467.50;5034907;28;45514;-76
2023/09/26 09:59:41;;;;;;;;;9.50;8.25;;;;;29.56;36.09;101462.50;5034390;28;45228;-76
2023/09/26 10:02:10;;;;;;;;;6.75;6.50;;;;;29.61;36.53;101471.09;5034547;28;45441;-77
2023/09/26 10:04:39;;;;;;;;;7.50;7.25;;;;;29.61;36.36;101471.09;5034674;28;45592;-76
2023/09/26 10:07:04;;;;;;;;;5.75;5.50;;;;;29.67;36.56;101482.34;5035131;28;45362;-75
2023/09/26 10:09:32;;;;;;;;;6.75;6.75;;;;;29.56;36.24;101479.94;5034217;28;45569;-76
2023/09/26 10:11:59;;;;;;;;;7.25;7.25;;;;;29.58;35.55;101486.16;5033991;28;45383;-75
2023/09/26 10:14:29;;;;;;;;;6.50;6.50;;;;;29.58;35.53;101485.31;5034352;28;45500;-76
2023/09/26 10:16:56;;;;;;;;;6.75;6.75;;;;;29.50;35.67;101480.66;5028367;28;45453;-75
2023/09/26 10:19:26;;;;;;;;;10.25;6.75;;;;;29.58;36.32;101469.59;5033168;28;46193;-77
2023/09/26 10:21:54;;;;;;;;;6.25;6.25;;;;;29.63;35.49;101455.22;5034667;28;47429;-77
2023/09/26 10:24:21;;;;;;;;;6.25;6.25;;;;;29.73;35.33;101454.00;5035367;28;45355;-76
2023/09/26 10:26:50;;;;;;;;;4.50;4.50;;;;;29.92;35.45;101452.72;5034960;28;45330;-76
2023/09/26 10:29:25;;;;;;;;;6.00;5.50;;;;;30.13;35.21;101446.59;5034952;28;45458;-77
2023/09/26 10:31:58;;;;;;;;;6.00;6.00;;;;;30.31;35.10;101451.84;5034512;28;45501;-76
2023/09/26 10:34:32;;;;;;;;;7.00;7.00;;;;;30.46;34.77;101455.56;5034805;28;45296;-76
2023/09/26 10:37:02;;;;;;;;;6.25;6.25;;;;;30.64;35.26;101455.28;5034488;28;45500;-75
2023/09/26 10:39:39;;;;;;;;;7.75;6.50;;;;;30.68;35.56;101451.13;5034887;28;45335;-74
2023/09/26 10:42:12;;;;;;;;;5.75;5.75;;;;;30.77;33.84;101442.59;5032714;28;45376;-76
2023/09/26 10:44:45;;;;;;;;;7.25;6.50;;;;;30.85;34.02;101449.97;5035003;28;45459;-75
2023/09/26 10:47:15;;;;;;;;;5.50;5.50;;;;;31.01;34.56;101437.88;5034957;28;45360;-75
2023/09/26 10:49:41;;;;;;;;;4.75;4.75;;;;;31.05;34.45;101439.25;5034504;28;45506;-77
2023/09/26 10:52:10;;;;;;;;;5.75;5.75;;;;;31.24;34.59;101457.25;5037282;28;45423;-75
2023/09/26 10:54:37;;;;;;;;;5.50;5.25;;;;;31.33;33.68;101450.59;5037772;28;45262;-76
2023/09/26 10:57:03;;;;;;;;;4.75;4.75;;;;;31.39;33.17;101436.00;5037483;28;45489;-76
2023/09/26 10:59:29;;;;;;;;;6.50;6.50;;;;;31.49;33.47;101436.53;5037418;28;45515;-77
2023/09/26 11:01:59;;;;;;;;;5.75;5.75;;;;;31.64;33.83;101437.47;5037410;28;45368;-76
2023/09/26 11:04:29;;;;;;;;;5.50;5.50;;;;;31.76;33.71;101430.38;5036983;28;45508;-77
2023/09/26 11:06:58;;;;;;;;;9.75;7.00;;;;;31.94;33.44;101424.44;5036525;28;45446;-76
2023/09/26 11:09:25;;;;;;;;;5.75;5.25;;;;;32.26;32.34;101423.16;5036971;28;45529;-75
2023/09/26 11:11:51;;;;;;;;;5.50;5.50;;;;;32.66;31.67;101421.69;5036746;28;46048;-74
2023/09/26 11:14:17;;;;;;;;;4.75;4.75;;;;;32.95;31.29;101409.56;5037166;28;45280;-77
2023/09/26 11:16:43;;;;;;;;;5.00;4.75;;;;;33.20;30.67;101408.06;5037332;28;45342;-76
2023/09/26 11:19:11;;;;;;;;;4.25;4.25;;;;;33.69;30.20;101427.47;5036536;28;45547;-75
2023/09/26 11:21:37;;;;;;;;;6.50;6.25;;;;;34.08;29.70;101426.84;5037276;28;45392;-76
2023/09/26 11:24:24;;;;;;;;;5.50;5.50;;;;;34.77;29.40;101426.66;5052224;28;45602;-76
2023/09/26 11:26:52;;;;;;;;;10.50;6.75;;;;;35.33;28.54;101426.25;5036598;28;45299;-76
2023/09/26 11:29:18;;;;;;;;;5.00;5.00;;;;;35.80;27.22;101425.13;5036784;28;45472;-77
2023/09/26 11:31:45;;;;;;;;;6.25;6.25;;;;;36.23;27.41;101431.00;5036276;28;45405;-75
2023/09/26 11:34:11;;;;;;;;;5.00;5.00;;;;;36.67;26.48;101416.13;5036745;28;45330;-75
2023/09/26 11:36:39;;;;;;;;;4.25;4.25;;;;;37.06;26.04;101422.50;5036670;28;45501;-77
2023/09/26 11:39:11;;;;;;;;;6.50;6.50;;;;;37.15;26.09;101417.50;5036470;28;45169;-76
2023/09/26 11:41:36;;;;;;;;;6.50;5.25;;;;;37.25;25.31;101421.50;5035972;28;46208;-76
2023/09/26 11:44:12;;;;;;;;;3.00;2.00;;;;;37.22;25.27;101416.34;5036011;28;45469;-76
2023/09/26 11:46:49;;;;;;;;;3.75;3.75;;;;;37.42;25.47;101414.22;5036694;28;45391;-75
2023/09/26 11:49:16;;;;;;;;;5.00;5.00;;;;;37.62;24.55;101422.44;5036634;28;45232;-76
2023/09/26 11:51:42;;;;;;;;;4.75;3.25;;;;;37.67;24.29;101427.34;5036688;28;46215;-76
2023/09/26 11:54:08;;;;;;;;;5.00;5.00;;;;;37.92;24.05;101435.66;5036882;28;45558;-75
2023/09/26 11:56:34;;;;;;;;;3.50;3.50;;;;;37.98;23.83;101418.78;5036703;28;45318;-75
2023/09/26 11:59:01;;;;;;;;;4.00;4.00;;;;;38.70;23.79;101413.31;5036184;28;45566;-78
2023/09/26 12:01:27;;;;;;;;;5.00;5.00;;;;;39.39;23.23;101400.53;5035618;28;47255;-76
2023/09/26 12:03:52;;;;;;;;;4.00;4.00;;;;;40.16;21.23;101406.72;5035711;28;45422;-76
2023/09/26 12:06:17;;;;;;;;;3.25;3.25;;;;;40.83;21.33;101399.34;5035868;28;45441;-76
2023/09/26 12:08:43;;;;;;;;;5.50;4.00;;;;;41.38;20.33;101398.56;5035821;28;48228;-76
2023/09/26 12:11:10;;;;;;;;;3.00;3.00;;;;;41.71;20.46;101392.03;5035328;28;46135;-77
2023/09/26 12:13:35;;;;;;;;;4.00;4.00;;;;;41.66;19.78;101395.66;5035485;28;45518;-75
2023/09/26 12:16:01;;;;;;;;;3.50;2.75;;;;;41.74;19.87;101394.34;5035745;28;45428;-76
2023/09/26 12:18:26;;;;;;;;;5.00;3.50;;;;;42.24;19.86;101394.13;5035647;28;45314;-75
2023/09/26 12:20:55;;;;;;;;;5.75;5.75;;;;;43.09;18.51;101398.09;5035141;28;46194;-75
2023/09/26 12:23:21;;;;;;;;;4.25;4.25;;;;;43.82;18.55;101400.00;5035628;28;45318;-75
2023/09/26 12:25:47;;;;;;;;;2.50;2.50;;;;;44.44;17.52;101388.69;5035213;28;45374;-75
2023/09/26 12:28:13;;;;;;;;;4.50;1.00;;;;;45.07;16.94;101396.97;5035370;28;45361;-74
2023/09/26 12:30:38;;;;;;;;;2.75;2.00;;;;;44.96;15.91;101389.59;5035653;28;45440;-76
2023/09/26 12:33:04;;;;;;;;;5.50;2.25;;;;;45.08;16.37;101395.84;5035482;28;45338;-76
2023/09/26 12:35:29;;;;;;;;;5.00;4.00;;;;;44.85;16.30;101394.41;5035578;28;45334;-75
2023/09/26 12:37:55;;;;;;;;;3.33;3.33;;;;;44.12;17.31;101390.84;5035220;28;50048;-76
2023/09/26 12:40:20;;;;;;;;;3.75;3.75;;;;;43.69;18.28;101389.22;5035301;28;46060;-77
2023/09/26 12:42:46;;;;;;;;;3.75;2.75;;;;;43.00;17.29;101387.31;5035409;28;45876;-77
2023/09/26 12:45:11;;;;;;;;;0.25;0.25;;;;;42.38;18.09;101375.72;5035355;28;45524;-77
2023/09/26 12:47:37;;;;;;;;;5.00;4.00;;;;;42.64;18.20;101385.28;5035500;28;45370;-75
2023/09/26 12:50:08;;;;;;;;;4.00;3.00;;;;;42.33;18.94;101388.88;5035102;28;45516;-76
2023/09/26 12:52:34;;;;;;;;;2.50;2.50;;;;;42.04;18.64;101374.16;5035643;28;45386;-73
2023/09/26 12:55:00;;;;;;;;;4.00;4.00;;;;;41.77;19.21;101372.13;5035578;28;45511;-76
2023/09/26 12:57:25;;;;;;;;;4.00;4.00;;;;;41.46;18.37;101362.38;5034984;28;45486;-75
2023/09/26 12:59:51;;;;;;;;;3.75;3.00;;;;;41.41;18.91;101358.66;5035587;28;45493;-76
2023/09/26 13:02:16;;;;;;;;;8.75;3.75;;;;;41.67;19.15;101365.53;5035048;28;45266;-75
2023/09/26 13:04:42;;;;;;;;;3.00;3.00;;;;;41.80;18.46;101365.13;5035861;28;45298;-77
2023/09/26 13:07:07;;;;;;;;;5.00;4.00;;;;;42.27;18.63;101357.84;5035267;28;45327;-77
2023/09/26 13:09:33;;;;;;;;;2.50;2.50;;;;;42.55;18.12;101368.00;5035660;28;46337;-76
2023/09/26 13:11:58;;;;;;;;;2.50;2.50;;;;;42.76;18.19;101362.56;5034686;28;47393;-75
2023/09/26 13:14:23;;;;;;;;;3.00;3.00;;;;;42.45;17.98;101342.50;5030082;28;45375;-77
2023/09/26 13:16:49;;;;;;;;;3.00;2.75;;;;;42.48;18.82;101363.69;5028940;28;45532;-77
2023/09/26 13:19:14;;;;;;;;;6.00;2.50;;;;;42.59;17.93;101346.59;5035202;28;45566;-76
2023/09/26 13:21:40;;;;;;;;;4.25;2.75;;;;;42.74;18.00;101356.31;5033845;28;45473;-76
2023/09/26 13:24:05;;;;;;;;;4.25;3.25;;;;;43.23;18.36;101354.19;5035302;28;45460;-76
2023/09/26 13:26:31;;;;;;;;;2.00;2.00;;;;;43.86;17.45;101352.28;5035113;28;45357;-76
2023/09/26 13:28:56;;;;;;;;;4.00;3.00;;;;;44.18;17.34;101349.31;5035044;28;46182;-75
2023/09/26 13:31:21;;;;;;;;;2.00;2.00;;;;;44.11;16.34;101344.78;5035543;28;45406;-76
2023/09/26 13:33:47;;;;;;;;;0.00;0.00;;;;;44.27;16.99;101353.28;5035415;28;45310;-74
2023/09/26 13:36:12;;;;;;;;;4.50;3.50;;;;;44.67;16.65;101344.00;5035463;28;45620;-76
2023/09/26 13:38:37;;;;;;;;;3.00;3.00;;;;;44.94;16.13;101346.56;5035555;28;46196;-76
2023/09/26 13:41:05;;;;;;;;;2.25;2.25;;;;;44.77;15.87;101350.56;5050381;28;45450;-77
2023/09/26 13:43:31;;;;;;;;;4.00;3.50;;;;;44.76;16.26;101359.31;5032753;28;45356;-76
2023/09/26 13:45:57;;;;;;;;;2.75;2.75;;;;;45.03;16.28;101354.22;5034850;28;45492;-76
2023/09/26 13:48:22;;;;;;;;;3.75;3.75;;;;;45.14;15.74;101353.09;5034551;28;45513;-76
2023/09/26 13:50:47;;;;;;;;;2.00;2.00;;;;;44.95;15.87;101351.09;5035228;28;45367;-77
2023/09/26 13:53:13;;;;;;;;;3.33;3.33;;;;;45.04;15.32;101347.41;5035111;28;45231;-77
2023/09/26 13:55:38;;;;;;;;;3.00;3.00;;;;;45.35;15.62;101344.53;5034342;28;45259;-75
2023/09/26 13:58:03;;;;;;;;;3.50;2.25;;;;;45.05;15.76;101342.63;5034181;28;45373;-77
2023/09/26 14:00:29;;;;;;;;;3.50;3.50;;;;;44.96;16.23;101352.81;5034676;28;45179;-76
2023/09/26 14:02:55;;;;;;;;;2.00;2.00;;;;;44.69;16.09;101348.25;5034431;28;45444;-77
2023/09/26 14:05:22;;;;;;;;;4.25;3.00;;;;;44.61;16.23;101353.63;5034995;28;45349;-77
2023/09/26 14:07:48;;;;;;;;;2.00;1.00;;;;;44.40;16.42;101352.78;5034552;28;45610;-77
2023/09/26 14:10:13;;;;;;;;;2.25;2.25;;;;;44.41;15.94;101343.16;5034688;28;45442;-77
2023/09/26 14:12:39;;;;;;;;;2.25;2.25;;;;;44.16;16.54;101348.72;5034441;28;45489;-76
2023/09/26 14:15:05;;;;;;;;;2.00;2.00;;;;;43.81;16.30;101344.66;5034520;28;45227;-76
2023/09/26 14:17:30;;;;;;;;;2.00;2.00;;;;;43.38;16.84;101331.72;5034620;28;45399;-76
2023/09/26 14:19:56;;;;;;;;;3.75;2.00;;;;;43.01;16.61;101328.91;5034713;28;45320;-76
2023/09/26 14:22:21;;;;;;;;;4.00;2.75;;;;;42.78;17.08;101334.94;5050104;28;45429;-76
2023/09/26 14:24:47;;;;;;;;;3.25;3.25;;;;;42.54;16.70;101321.16;5034453;28;45370;-75
2023/09/26 14:27:12;;;;;;;;;2.00;2.00;;;;;42.63;16.89;101330.84;5036188;28;46987;-75
2023/09/26 14:29:38;;;;;;;;;3.50;3.50;;;;;42.45;17.69;101319.94;5037801;28;45245;-76
2023/09/26 14:32:03;;;;;;;;;3.00;3.00;;;;;42.03;17.41;101318.94;5037793;28;45169;-76
2023/09/26 14:34:29;;;;;;;;;2.25;2.25;;;;;41.59;17.79;101332.19;5037949;28;45194;-77
2023/09/26 14:36:54;;;;;;;;;5.00;3.50;;;;;41.21;17.92;101324.56;5037758;28;45472;-76
2023/09/26 14:39:19;;;;;;;;;5.00;4.00;;;;;40.89;18.03;101321.53;5037889;28;45342;-75
2023/09/26 14:41:45;;;;;;;;;3.50;2.50;;;;;40.56;19.28;101308.31;5037124;28;45387;-75
2023/09/26 14:44:10;;;;;;;;;3.25;3.25;;;;;40.50;18.77;101323.38;5037765;28;45490;-76
2023/09/26 14:46:36;;;;;;;;;3.00;3.00;;;;;40.34;19.50;101325.91;5037277;28;46102;-76
2023/09/26 14:49:02;;;;;;;;;2.00;2.00;;;;;40.35;19.46;101333.22;5038131;28;45403;-77
2023/09/26 14:51:27;;;;;;;;;4.00;4.00;;;;;40.24;18.85;101339.72;5037656;28;45505;-76
2023/09/26 14:53:52;;;;;;;;;4.50;3.25;;;;;40.03;19.27;101340.47;5036680;28;46694;-76
2023/09/26 14:56:18;;;;;;;;;3.00;3.00;;;;;39.78;19.51;101337.09;5038238;28;46627;-76
2023/09/26 14:58:48;;;;;;;;;3.50;3.00;;;;;39.57;19.48;101325.44;5038911;28;45283;-76
2023/09/26 15:01:13;;;;;;;;;3.50;3.50;;;;;39.33;19.92;101318.97;5038377;28;45369;-76
2023/09/26 15:03:39;;;;;;;;;5.00;4.00;;;;;39.14;20.82;101322.16;5037964;28;45242;-77
2023/09/26 15:06:04;;;;;;;;;5.75;4.50;;;;;38.92;20.55;101317.16;5037302;28;46357;-76
2023/09/26 15:08:30;;;;;;;;;4.75;4.75;;;;;38.53;20.87;101340.28;5037514;28;45430;-77
2023/09/26 15:10:55;;;;;;;;;4.00;4.00;;;;;38.45;21.24;101333.00;5035944;28;45266;-75
2023/09/26 15:13:20;;;;;;;;;2.00;2.00;;;;;38.34;21.62;101345.06;5037672;28;45327;-77
2023/09/26 15:15:46;;;;;;;;;2.50;2.25;;;;;38.21;21.43;101346.09;5037112;28;45563;-76
2023/09/26 15:18:12;;;;;;;;;4.00;4.00;;;;;37.94;21.69;101336.31;5037495;28;45531;-76
2023/09/26 15:20:37;;;;;;;;;4.50;4.50;;;;;37.85;21.92;101327.44;5036403;28;45354;-76
2023/09/26 15:23:02;;;;;;;;;3.00;3.00;;;;;37.85;21.92;101340.56;5037255;28;45393;-80
2023/09/26 15:25:28;;;;;;;;;3.00;3.00;;;;;37.82;22.43;101336.28;5037020;28;46272;-81
2023/09/26 15:27:53;;;;;;;;;4.25;2.50;;;;;37.66;22.56;101322.94;5037449;28;45464;-79
2023/09/26 15:30:22;;;;;;;;;4.25;4.00;;;;;37.53;22.69;101331.44;5036808;28;45780;-84
2023/09/26 15:32:47;;;;;;;;;3.00;3.00;;;;;37.33;22.94;101328.91;5035939;28;47262;-79
2023/09/26 15:35:14;;;;;;;;;3.75;3.75;;;;;37.26;23.65;101313.28;5036389;28;46169;-78
2023/09/26 15:37:40;;;;;;;;;4.00;4.00;;;;;37.18;23.48;101321.94;5038286;28;45367;-82
2023/09/26 15:40:06;;;;;;;;;3.25;3.25;;;;;37.12;23.25;101318.97;5038245;28;45379;-78
2023/09/26 15:42:33;;;;;;;;;3.00;3.00;;;;;36.92;22.82;101317.47;5036345;28;45514;-79
2023/09/26 15:44:58;;;;;;;;;2.00;1.50;;;;;36.66;23.37;101310.16;5036292;28;46178;-80
2023/09/26 15:47:23;;;;;;;;;3.00;3.00;;;;;36.66;23.43;101299.00;5035203;28;45396;-79
2023/09/26 15:49:49;;;;;;;;;7.00;3.50;;;;;36.74;23.51;101312.69;5036382;28;45358;-79
2023/09/26 15:52:14;;;;;;;;;4.25;4.00;;;;;36.82;23.56;101290.06;5036555;28;45393;-79
2023/09/26 15:54:39;;;;;;;;;4.00;4.00;;;;;37.16;23.72;101298.97;5034586;28;48595;-79
2023/09/26 15:57:06;;;;;;;;;5.00;4.00;;;;;37.39;23.04;101304.72;5036625;28;45185;-78
2023/09/26 15:59:31;;;;;;;;;4.75;4.00;;;;;37.69;22.40;101304.81;5036548;28;45486;-80
2023/09/26 16:01:56;;;;;;;;;5.00;3.25;;;;;37.97;22.18;101290.22;5036559;28;45260;-79
2023/09/26 16:04:22;;;;;;;;;4.00;4.00;;;;;38.26;21.91;101288.53;5036402;28;45433;-79
2023/09/26 16:06:48;;;;;;;;;4.00;4.00;;;;;38.54;21.78;101286.75;5036363;28;45572;-79
2023/09/26 16:09:13;;;;;;;;;3.00;3.00;;;;;38.84;21.07;101302.66;5036271;28;45756;-80
2023/09/26 16:11:39;;;;;;;;;4.00;4.00;;;;;38.78;20.43;101292.41;5036494;28;45252;-80
2023/09/26 16:14:06;;;;;;;;;3.25;3.00;;;;;38.97;20.83;101320.09;5036137;28;46052;-80
2023/09/26 16:16:31;;;;;;;;;3.75;3.75;;;;;39.16;20.70;101323.63;5036896;28;45402;-79
2023/09/26 16:18:57;;;;;;;;;3.25;3.25;;;;;39.11;20.65;101303.91;5036254;28;45643;-80
2023/09/26 16:21:23;;;;;;;;;4.75;4.75;;;;;39.12;20.95;101316.81;5035607;28;46017;-79
2023/09/26 16:23:51;;;;;;;;;7.50;3.25;;;;;39.19;20.74;101333.53;5035624;28;45569;-79
2023/09/26 16:26:16;;;;;;;;;6.25;3.25;;;;;39.05;20.97;101332.91;5050425;28;45936;-77
2023/09/26 16:28:42;;;;;;;;;2.25;2.25;;;;;38.81;20.75;101339.56;5034406;28;45344;-80
2023/09/26 16:31:07;;;;;;;;;2.00;2.00;;;;;38.53;21.18;101341.13;5035439;28;51214;-78
2023/09/26 16:33:32;;;;;;;;;3.50;3.50;;;;;38.18;21.53;101337.34;5035076;28;46329;-79
2023/09/26 16:35:58;;;;;;;;;5.25;2.00;;;;;38.09;22.37;101339.63;5035587;28;45527;-81
2023/09/26 16:38:23;;;;;;;;;2.25;2.25;;;;;37.97;21.63;101346.22;5035296;28;45319;-81
2023/09/26 16:40:49;;;;;;;;;2.25;2.25;;;;;37.78;22.74;101340.63;5035324;28;45368;-78
2023/09/26 16:43:14;;;;;;;;;1.00;1.00;;;;;37.64;22.47;101346.66;5035439;28;46082;-81
2023/09/26 16:45:41;;;;;;;;;2.00;2.00;;;;;37.66;22.62;101344.47;5035902;28;45317;-81
2023/09/26 16:48:07;;;;;;;;;4.00;4.00;;;;;37.54;23.06;101335.09;5035188;28;45322;-81
2023/09/26 16:50:34;;;;;;;;;4.00;4.00;;;;;37.42;23.38;101338.69;5036918;28;45339;-84
2023/09/26 16:53:00;;;;;;;;;3.50;3.50;;;;;37.32;23.25;101351.50;5035540;28;47042;-77
2023/09/26 16:55:26;;;;;;;;;5.75;5.00;;;;;37.28;23.23;101367.88;5034999;28;45455;-78
2023/09/26 16:57:51;;;;;;;;;4.00;3.75;;;;;37.08;23.64;101344.84;5035438;28;45353;-83
2023/09/26 17:00:16;;;;;;;;;4.00;4.00;;;;;36.92;23.78;101365.81;5050781;28;46149;-82
2023/09/26 17:02:42;;;;;;;;;3.00;3.00;;;;;36.76;23.71;101366.41;5034956;28;46086;-79
2023/09/26 17:05:07;;;;;;;;;4.00;4.00;;;;;36.56;24.09;101355.38;5035576;28;45522;-83
2023/09/26 17:07:33;;;;;;;;;2.00;2.00;;;;;36.32;24.40;101358.97;5034822;28;45239;-82
2023/09/26 17:09:59;;;;;;;;;3.25;3.25;;;;;36.04;24.61;101362.13;5035921;28;45484;-86
2023/09/26 17:12:24;;;;;;;;;4.75;4.00;;;;;35.90;25.13;101377.22;5050810;28;46825;-81
2023/09/26 17:14:50;;;;;;;;;5.00;3.50;;;;;35.89;25.20;101389.47;5034888;28;45314;-82
2023/09/26 17:17:16;;;;;;;;;7.00;5.25;;;;;35.69;25.46;101383.91;5035134;28;45501;-81
2023/09/26 17:19:41;;;;;;;;;5.00;5.00;;;;;35.55;25.49;101382.25;5034231;28;45453;-81
2023/09/26 17:22:07;;;;;;;;;5.75;5.75;;;;;35.51;26.12;101394.91;5035145;28;45646;-76
2023/09/26 17:24:32;;;;;;;;;8.75;5.00;;;;;35.42;26.21;101397.06;5035392;28;45515;-75
2023/09/26 17:26:58;;;;;;;;;5.00;4.75;;;;;35.18;26.27;101372.63;5033688;28;45441;-82
2023/09/26 17:29:23;;;;;;;;;5.75;5.75;;;;;35.20;26.09;101384.44;5038799;28;45501;-83
2023/09/26 17:31:48;;;;;;;;;5.50;4.50;;;;;35.06;26.04;101389.16;5032943;28;46945;-81
2023/09/26 17:34:14;;;;;;;;;6.25;6.25;;;;;34.86;27.16;101374.38;5035095;28;45430;-82
2023/09/26 17:36:40;;;;;;;;;6.00;6.00;;;;;34.74;26.73;101379.72;5036135;28;45485;-84
2023/09/26 17:39:11;;;;;;;;;8.25;7.00;;;;;34.69;27.27;101396.19;5027315;28;45375;-80
2023/09/26 17:41:39;;;;;;;;;5.50;5.50;;;;;34.61;27.24;101395.53;5030180;28;46531;-78
2023/09/26 17:44:04;;;;;;;;;5.00;5.00;;;;;34.58;27.31;101393.16;5033220;28;45975;-80
2023/09/26 17:46:29;;;;;;;;;6.50;5.75;;;;;34.43;27.44;101385.88;5030820;28;45418;-82